sensor_id;sensor_type;location;lat;lon;timestamp;P1;durP1;ratioP1;P2;durP2;ratioP2
54247;SDS011;40161;39.768;2.722;2022-08-03T00:01:09;5.15;;;2.53;;
54247;SDS011;40161;39.768;2.722;2022-08-03T00:03:34;4.32;;;2.42;;
54247;SDS011;40161;39.768;2.722;2022-08-03T00:06:00;3.50;;;2.20;;
54247;SDS011;40161;39.768;2.722;2022-08-03T00:08:25;3.72;;;2.47;;
54247;SDS011;40161;39.768;2.722;2022-08-03T00:10:51;5.03;;;2.67;;
54247;SDS011;40161;39.768;2.722;2022-08-03T00:13:17;5.10;;;2.63;;
54247;SDS011;40161;39.768;2.722;2022-08-03T00:15:43;4.30;;;2.70;;
54247;SDS011;40161;39.768;2.722;2022-08-03T00:18:09;5.03;;;2.55;;
54247;SDS011;40161;39.768;2.722;2022-08-03T00:20:35;4.38;;;2.70;;
54247;SDS011;40161;39.768;2.722;2022-08-03T00:23:00;5.60;;;2.70;;
54247;SDS011;40161;39.768;2.722;2022-08-03T00:25:26;4.57;;;2.80;;
54247;SDS011;40161;39.768;2.722;2022-08-03T00:27:51;4.43;;;2.75;;
54247;SDS011;40161;39.768;2.722;2022-08-03T00:30:17;4.72;;;2.90;;
54247;SDS011;40161;39.768;2.722;2022-08-03T00:32:43;4.60;;;2.70;;
54247;SDS011;40161;39.768;2.722;2022-08-03T00:35:08;4.55;;;2.65;;
54247;SDS011;40161;39.768;2.722;2022-08-03T00:37:34;5.70;;;2.72;;
54247;SDS011;40161;39.768;2.722;2022-08-03T00:39:59;4.07;;;2.65;;
54247;SDS011;40161;39.768;2.722;2022-08-03T00:42:25;5.05;;;2.80;;
54247;SDS011;40161;39.768;2.722;2022-08-03T00:44:50;5.28;;;3.10;;
54247;SDS011;40161;39.768;2.722;2022-08-03T00:47:16;7.45;;;2.92;;
54247;SDS011;40161;39.768;2.722;2022-08-03T00:49:42;4.90;;;2.90;;
54247;SDS011;40161;39.768;2.722;2022-08-03T00:52:08;4.10;;;2.47;;
54247;SDS011;40161;39.768;2.722;2022-08-03T00:54:35;7.47;;;2.85;;
54247;SDS011;40161;39.768;2.722;2022-08-03T00:57:02;4.15;;;2.20;;
54247;SDS011;40161;39.768;2.722;2022-08-03T00:59:29;4.45;;;2.90;;
54247;SDS011;40161;39.768;2.722;2022-08-03T01:01:55;4.78;;;2.63;;
54247;SDS011;40161;39.768;2.722;2022-08-03T01:04:20;3.70;;;2.50;;
54247;SDS011;40161;39.768;2.722;2022-08-03T01:15:12;5.13;;;2.80;;
54247;SDS011;40161;39.768;2.722;2022-08-03T01:20:24;5.80;;;2.90;;
54247;SDS011;40161;39.768;2.722;2022-08-03T01:22:59;4.63;;;2.70;;
54247;SDS011;40161;39.768;2.722;2022-08-03T01:31:04;4.00;;;2.83;;
54247;SDS011;40161;39.768;2.722;2022-08-03T01:33:34;4.47;;;2.80;;
54247;SDS011;40161;39.768;2.722;2022-08-03T01:36:06;4.82;;;3.03;;
54247;SDS011;40161;39.768;2.722;2022-08-03T01:38:40;5.47;;;3.08;;
54247;SDS011;40161;39.768;2.722;2022-08-03T01:41:13;5.82;;;2.95;;
54247;SDS011;40161;39.768;2.722;2022-08-03T01:43:43;4.65;;;2.65;;
54247;SDS011;40161;39.768;2.722;2022-08-03T01:46:13;4.43;;;2.55;;
54247;SDS011;40161;39.768;2.722;2022-08-03T01:48:41;3.20;;;2.10;;
54247;SDS011;40161;39.768;2.722;2022-08-03T01:51:09;4.00;;;2.50;;
54247;SDS011;40161;39.768;2.722;2022-08-03T01:53:36;4.57;;;2.60;;
54247;SDS011;40161;39.768;2.722;2022-08-03T01:56:06;3.78;;;2.58;;
54247;SDS011;40161;39.768;2.722;2022-08-03T02:01:54;4.00;;;2.53;;
54247;SDS011;40161;39.768;2.722;2022-08-03T02:07:43;3.80;;;2.63;;
54247;SDS011;40161;39.768;2.722;2022-08-03T02:13:32;4.35;;;2.50;;
54247;SDS011;40161;39.768;2.722;2022-08-03T02:19:20;4.90;;;2.72;;
54247;SDS011;40161;39.768;2.722;2022-08-03T02:25:10;5.00;;;2.60;;
54247;SDS011;40161;39.768;2.722;2022-08-03T02:30:58;4.40;;;2.60;;
54247;SDS011;40161;39.768;2.722;2022-08-03T02:36:50;6.07;;;2.67;;
54247;SDS011;40161;39.768;2.722;2022-08-03T02:42:39;3.92;;;2.90;;
54247;SDS011;40161;39.768;2.722;2022-08-03T02:48:31;5.28;;;2.90;;
54247;SDS011;40161;39.768;2.722;2022-08-03T02:54:21;4.65;;;2.40;;
54247;SDS011;40161;39.768;2.722;2022-08-03T03:00:17;3.67;;;2.50;;
54247;SDS011;40161;39.768;2.722;2022-08-03T03:06:04;4.72;;;3.13;;
54247;SDS011;40161;39.768;2.722;2022-08-03T03:11:53;5.15;;;3.00;;
54247;SDS011;40161;39.768;2.722;2022-08-03T03:17:40;4.70;;;2.45;;
54247;SDS011;40161;39.768;2.722;2022-08-03T03:23:29;5.30;;;2.65;;
54247;SDS011;40161;39.768;2.722;2022-08-03T03:25:56;4.18;;;2.58;;
54247;SDS011;40161;39.768;2.722;2022-08-03T03:28:23;4.75;;;2.60;;
54247;SDS011;40161;39.768;2.722;2022-08-03T03:34:11;5.28;;;2.85;;
54247;SDS011;40161;39.768;2.722;2022-08-03T03:43:29;5.07;;;3.15;;
54247;SDS011;40161;39.768;2.722;2022-08-03T03:49:17;5.88;;;2.83;;
54247;SDS011;40161;39.768;2.722;2022-08-03T03:55:05;4.28;;;2.53;;
54247;SDS011;40161;39.768;2.722;2022-08-03T04:00:52;4.78;;;2.83;;
54247;SDS011;40161;39.768;2.722;2022-08-03T04:06:40;4.70;;;2.90;;
54247;SDS011;40161;39.768;2.722;2022-08-03T04:16:14;5.00;;;2.85;;
54247;SDS011;40161;39.768;2.722;2022-08-03T04:22:05;4.05;;;2.58;;
54247;SDS011;40161;39.768;2.722;2022-08-03T04:27:56;4.95;;;2.80;;
54247;SDS011;40161;39.768;2.722;2022-08-03T04:33:49;5.15;;;2.90;;
54247;SDS011;40161;39.768;2.722;2022-08-03T04:39:38;5.75;;;2.90;;
54247;SDS011;40161;39.768;2.722;2022-08-03T04:45:29;8.80;;;3.20;;
54247;SDS011;40161;39.768;2.722;2022-08-03T04:51:17;3.97;;;2.67;;
54247;SDS011;40161;39.768;2.722;2022-08-03T04:57:04;5.95;;;3.40;;
54247;SDS011;40161;39.768;2.722;2022-08-03T05:02:51;7.07;;;2.85;;
54247;SDS011;40161;39.768;2.722;2022-08-03T05:08:39;6.00;;;2.78;;
54247;SDS011;40161;39.768;2.722;2022-08-03T05:14:26;6.93;;;2.92;;
54247;SDS011;40161;39.768;2.722;2022-08-03T05:20:13;7.65;;;3.22;;
54247;SDS011;40161;39.768;2.722;2022-08-03T05:26:00;6.45;;;3.00;;
54247;SDS011;40161;39.768;2.722;2022-08-03T05:31:47;6.97;;;3.78;;
54247;SDS011;40161;39.768;2.722;2022-08-03T05:37:35;8.80;;;3.22;;
54247;SDS011;40161;39.768;2.722;2022-08-03T05:43:22;6.17;;;3.37;;
54247;SDS011;40161;39.768;2.722;2022-08-03T05:49:09;8.80;;;3.47;;
54247;SDS011;40161;39.768;2.722;2022-08-03T05:54:56;7.82;;;3.42;;
54247;SDS011;40161;39.768;2.722;2022-08-03T06:00:43;6.57;;;3.30;;
54247;SDS011;40161;39.768;2.722;2022-08-03T06:06:30;12.90;;;4.22;;
54247;SDS011;40161;39.768;2.722;2022-08-03T06:12:17;9.20;;;3.95;;
54247;SDS011;40161;39.768;2.722;2022-08-03T06:18:04;10.00;;;3.78;;
54247;SDS011;40161;39.768;2.722;2022-08-03T06:23:53;9.30;;;4.28;;
54247;SDS011;40161;39.768;2.722;2022-08-03T06:29:40;6.18;;;3.58;;
54247;SDS011;40161;39.768;2.722;2022-08-03T06:35:28;10.75;;;4.18;;
54247;SDS011;40161;39.768;2.722;2022-08-03T06:37:53;7.57;;;3.83;;
54247;SDS011;40161;39.768;2.722;2022-08-03T06:40:20;8.10;;;3.83;;
54247;SDS011;40161;39.768;2.722;2022-08-03T06:42:57;7.75;;;4.30;;
54247;SDS011;40161;39.768;2.722;2022-08-03T06:45:23;8.50;;;3.55;;
54247;SDS011;40161;39.768;2.722;2022-08-03T06:50:44;6.30;;;3.30;;
54247;SDS011;40161;39.768;2.722;2022-08-03T06:53:10;5.40;;;3.47;;
54247;SDS011;40161;39.768;2.722;2022-08-03T06:55:35;6.72;;;3.40;;
54247;SDS011;40161;39.768;2.722;2022-08-03T06:58:01;7.60;;;3.40;;
54247;SDS011;40161;39.768;2.722;2022-08-03T07:00:27;4.95;;;3.20;;
54247;SDS011;40161;39.768;2.722;2022-08-03T07:02:53;6.32;;;3.35;;
54247;SDS011;40161;39.768;2.722;2022-08-03T07:05:18;7.60;;;3.00;;
54247;SDS011;40161;39.768;2.722;2022-08-03T07:07:44;6.53;;;3.20;;
54247;SDS011;40161;39.768;2.722;2022-08-03T07:10:10;7.47;;;4.28;;
54247;SDS011;40161;39.768;2.722;2022-08-03T07:12:35;6.60;;;3.75;;
54247;SDS011;40161;39.768;2.722;2022-08-03T07:15:02;4.85;;;3.33;;
54247;SDS011;40161;39.768;2.722;2022-08-03T07:17:30;5.82;;;3.80;;
54247;SDS011;40161;39.768;2.722;2022-08-03T07:19:57;5.32;;;3.78;;
54247;SDS011;40161;39.768;2.722;2022-08-03T07:22:23;6.38;;;3.80;;
54247;SDS011;40161;39.768;2.722;2022-08-03T07:24:49;6.00;;;3.38;;
54247;SDS011;40161;39.768;2.722;2022-08-03T07:27:15;7.90;;;3.60;;
54247;SDS011;40161;39.768;2.722;2022-08-03T07:29:41;4.78;;;3.20;;
54247;SDS011;40161;39.768;2.722;2022-08-03T07:32:06;5.22;;;3.30;;
54247;SDS011;40161;39.768;2.722;2022-08-03T07:34:32;8.00;;;3.67;;
54247;SDS011;40161;39.768;2.722;2022-08-03T07:36:58;7.38;;;3.35;;
54247;SDS011;40161;39.768;2.722;2022-08-03T07:39:23;5.10;;;2.80;;
54247;SDS011;40161;39.768;2.722;2022-08-03T07:41:49;5.00;;;2.35;;
54247;SDS011;40161;39.768;2.722;2022-08-03T07:44:16;4.18;;;2.40;;
54247;SDS011;40161;39.768;2.722;2022-08-03T07:46:42;3.92;;;2.30;;
54247;SDS011;40161;39.768;2.722;2022-08-03T07:49:08;4.78;;;2.30;;
54247;SDS011;40161;39.768;2.722;2022-08-03T07:51:34;4.15;;;2.20;;
54247;SDS011;40161;39.768;2.722;2022-08-03T07:53:59;4.00;;;2.33;;
54247;SDS011;40161;39.768;2.722;2022-08-03T07:56:25;4.32;;;2.60;;
54247;SDS011;40161;39.768;2.722;2022-08-03T07:58:52;3.55;;;2.40;;
54247;SDS011;40161;39.768;2.722;2022-08-03T08:01:18;4.15;;;2.50;;
54247;SDS011;40161;39.768;2.722;2022-08-03T08:03:47;4.80;;;2.50;;
54247;SDS011;40161;39.768;2.722;2022-08-03T08:06:13;5.45;;;2.50;;
54247;SDS011;40161;39.768;2.722;2022-08-03T08:08:39;4.45;;;2.45;;
54247;SDS011;40161;39.768;2.722;2022-08-03T08:11:05;5.47;;;2.78;;
54247;SDS011;40161;39.768;2.722;2022-08-03T08:13:31;6.13;;;2.50;;
54247;SDS011;40161;39.768;2.722;2022-08-03T08:15:56;5.18;;;3.20;;
54247;SDS011;40161;39.768;2.722;2022-08-03T08:18:22;4.50;;;2.30;;
54247;SDS011;40161;39.768;2.722;2022-08-03T08:20:48;5.00;;;2.10;;
54247;SDS011;40161;39.768;2.722;2022-08-03T08:23:14;5.43;;;2.47;;
54247;SDS011;40161;39.768;2.722;2022-08-03T08:25:46;4.80;;;1.98;;
54247;SDS011;40161;39.768;2.722;2022-08-03T08:28:12;3.80;;;2.20;;
54247;SDS011;40161;39.768;2.722;2022-08-03T08:30:38;4.72;;;2.10;;
54247;SDS011;40161;39.768;2.722;2022-08-03T08:33:04;3.53;;;2.10;;
54247;SDS011;40161;39.768;2.722;2022-08-03T08:35:29;5.00;;;2.40;;
54247;SDS011;40161;39.768;2.722;2022-08-03T08:37:55;3.95;;;1.80;;
54247;SDS011;40161;39.768;2.722;2022-08-03T08:40:21;5.88;;;1.90;;
54247;SDS011;40161;39.768;2.722;2022-08-03T08:42:46;4.55;;;1.67;;
54247;SDS011;40161;39.768;2.722;2022-08-03T08:45:12;3.20;;;1.70;;
54247;SDS011;40161;39.768;2.722;2022-08-03T08:47:40;3.72;;;1.70;;
54247;SDS011;40161;39.768;2.722;2022-08-03T08:50:09;4.97;;;1.88;;
54247;SDS011;40161;39.768;2.722;2022-08-03T08:52:36;3.78;;;1.55;;
54247;SDS011;40161;39.768;2.722;2022-08-03T08:55:06;3.42;;;1.80;;
54247;SDS011;40161;39.768;2.722;2022-08-03T08:57:35;4.57;;;1.65;;
54247;SDS011;40161;39.768;2.722;2022-08-03T09:00:06;4.57;;;1.60;;
54247;SDS011;40161;39.768;2.722;2022-08-03T09:02:34;3.33;;;1.55;;
54247;SDS011;40161;39.768;2.722;2022-08-03T09:05:00;3.67;;;2.20;;
54247;SDS011;40161;39.768;2.722;2022-08-03T09:07:26;5.68;;;1.70;;
54247;SDS011;40161;39.768;2.722;2022-08-03T09:09:53;3.30;;;1.50;;
54247;SDS011;40161;39.768;2.722;2022-08-03T09:12:18;2.47;;;1.33;;
54247;SDS011;40161;39.768;2.722;2022-08-03T09:14:44;2.90;;;1.30;;
54247;SDS011;40161;39.768;2.722;2022-08-03T09:17:10;2.85;;;1.40;;
54247;SDS011;40161;39.768;2.722;2022-08-03T09:19:36;2.25;;;1.20;;
54247;SDS011;40161;39.768;2.722;2022-08-03T09:22:12;3.53;;;1.58;;
54247;SDS011;40161;39.768;2.722;2022-08-03T09:24:53;5.38;;;1.73;;
54247;SDS011;40161;39.768;2.722;2022-08-03T09:27:21;4.00;;;1.40;;
54247;SDS011;40161;39.768;2.722;2022-08-03T09:29:48;3.33;;;1.40;;
54247;SDS011;40161;39.768;2.722;2022-08-03T09:32:15;2.78;;;1.30;;
54247;SDS011;40161;39.768;2.722;2022-08-03T09:34:45;4.10;;;1.55;;
54247;SDS011;40161;39.768;2.722;2022-08-03T09:37:13;2.58;;;1.48;;
54247;SDS011;40161;39.768;2.722;2022-08-03T09:39:40;5.47;;;1.55;;
54247;SDS011;40161;39.768;2.722;2022-08-03T09:42:13;2.40;;;1.30;;
54247;SDS011;40161;39.768;2.722;2022-08-03T09:44:42;3.33;;;1.42;;
54247;SDS011;40161;39.768;2.722;2022-08-03T09:47:09;5.03;;;1.40;;
54247;SDS011;40161;39.768;2.722;2022-08-03T09:49:38;3.97;;;1.73;;
54247;SDS011;40161;39.768;2.722;2022-08-03T09:52:12;3.13;;;1.40;;
54247;SDS011;40161;39.768;2.722;2022-08-03T09:54:40;3.03;;;1.60;;
54247;SDS011;40161;39.768;2.722;2022-08-03T09:57:07;3.63;;;1.52;;
54247;SDS011;40161;39.768;2.722;2022-08-03T09:59:33;3.03;;;1.40;;
54247;SDS011;40161;39.768;2.722;2022-08-03T10:04:47;3.95;;;1.60;;
54247;SDS011;40161;39.768;2.722;2022-08-03T10:07:15;3.45;;;1.60;;
54247;SDS011;40161;39.768;2.722;2022-08-03T10:09:51;2.70;;;1.48;;
54247;SDS011;40161;39.768;2.722;2022-08-03T10:12:19;3.67;;;1.70;;
54247;SDS011;40161;39.768;2.722;2022-08-03T10:14:45;4.13;;;1.75;;
54247;SDS011;40161;39.768;2.722;2022-08-03T10:27:22;3.05;;;1.40;;
54247;SDS011;40161;39.768;2.722;2022-08-03T10:33:20;6.60;;;1.50;;
54247;SDS011;40161;39.768;2.722;2022-08-03T10:36:03;3.58;;;1.40;;
54247;SDS011;40161;39.768;2.722;2022-08-03T10:38:39;3.72;;;1.10;;
54247;SDS011;40161;39.768;2.722;2022-08-03T10:57:53;2.80;;;1.05;;
54247;SDS011;40161;39.768;2.722;2022-08-03T11:10:05;5.28;;;1.13;;
54247;SDS011;40161;39.768;2.722;2022-08-03T11:19:44;2.00;;;1.10;;
54247;SDS011;40161;39.768;2.722;2022-08-03T11:22:11;3.17;;;1.45;;
54247;SDS011;40161;39.768;2.722;2022-08-03T11:27:31;2.72;;;1.60;;
54247;SDS011;40161;39.768;2.722;2022-08-03T11:30:11;2.08;;;1.20;;
54247;SDS011;40161;39.768;2.722;2022-08-03T11:32:53;3.35;;;1.23;;
54247;SDS011;40161;39.768;2.722;2022-08-03T11:35:32;3.65;;;1.20;;
54247;SDS011;40161;39.768;2.722;2022-08-03T11:38:09;2.90;;;1.20;;
54247;SDS011;40161;39.768;2.722;2022-08-03T11:48:40;2.33;;;1.23;;
54247;SDS011;40161;39.768;2.722;2022-08-03T11:51:20;1.73;;;1.00;;
54247;SDS011;40161;39.768;2.722;2022-08-03T11:56:23;3.38;;;1.30;;
54247;SDS011;40161;39.768;2.722;2022-08-03T11:58:51;4.00;;;1.50;;
54247;SDS011;40161;39.768;2.722;2022-08-03T12:01:23;2.10;;;1.27;;
54247;SDS011;40161;39.768;2.722;2022-08-03T12:16:07;3.47;;;1.20;;
54247;SDS011;40161;39.768;2.722;2022-08-03T12:21:56;2.03;;;1.23;;
54247;SDS011;40161;39.768;2.722;2022-08-03T12:43:34;2.83;;;1.40;;
54247;SDS011;40161;39.768;2.722;2022-08-03T13:04:10;5.70;;;1.50;;
54247;SDS011;40161;39.768;2.722;2022-08-03T13:12:23;3.17;;;1.40;;
54247;SDS011;40161;39.768;2.722;2022-08-03T13:20:37;4.78;;;1.30;;
54247;SDS011;40161;39.768;2.722;2022-08-03T13:23:03;2.58;;;1.25;;
54247;SDS011;40161;39.768;2.722;2022-08-03T13:25:29;3.40;;;1.50;;
54247;SDS011;40161;39.768;2.722;2022-08-03T13:27:54;3.90;;;1.33;;
54247;SDS011;40161;39.768;2.722;2022-08-03T13:30:20;3.97;;;1.40;;
54247;SDS011;40161;39.768;2.722;2022-08-03T13:32:45;2.78;;;1.30;;
54247;SDS011;40161;39.768;2.722;2022-08-03T13:35:11;3.72;;;1.20;;
54247;SDS011;40161;39.768;2.722;2022-08-03T13:37:37;4.07;;;1.25;;
54247;SDS011;40161;39.768;2.722;2022-08-03T13:40:04;3.25;;;1.40;;
54247;SDS011;40161;39.768;2.722;2022-08-03T13:42:33;3.97;;;1.23;;
54247;SDS011;40161;39.768;2.722;2022-08-03T13:44:59;4.50;;;1.27;;
54247;SDS011;40161;39.768;2.722;2022-08-03T13:47:26;3.25;;;1.30;;
54247;SDS011;40161;39.768;2.722;2022-08-03T13:49:52;3.75;;;1.40;;
54247;SDS011;40161;39.768;2.722;2022-08-03T13:52:18;4.03;;;1.30;;
54247;SDS011;40161;39.768;2.722;2022-08-03T13:54:44;2.53;;;1.33;;
54247;SDS011;40161;39.768;2.722;2022-08-03T13:57:10;2.30;;;1.10;;
54247;SDS011;40161;39.768;2.722;2022-08-03T13:59:36;2.00;;;1.20;;
54247;SDS011;40161;39.768;2.722;2022-08-03T14:02:02;5.60;;;1.42;;
54247;SDS011;40161;39.768;2.722;2022-08-03T14:04:28;3.10;;;1.17;;
54247;SDS011;40161;39.768;2.722;2022-08-03T14:06:54;2.40;;;1.30;;
54247;SDS011;40161;39.768;2.722;2022-08-03T14:09:20;2.92;;;1.30;;
54247;SDS011;40161;39.768;2.722;2022-08-03T14:11:45;2.70;;;1.40;;
54247;SDS011;40161;39.768;2.722;2022-08-03T14:14:11;2.80;;;1.35;;
54247;SDS011;40161;39.768;2.722;2022-08-03T14:16:37;2.30;;;1.25;;
54247;SDS011;40161;39.768;2.722;2022-08-03T14:19:03;2.97;;;1.35;;
54247;SDS011;40161;39.768;2.722;2022-08-03T14:21:31;3.67;;;1.35;;
54247;SDS011;40161;39.768;2.722;2022-08-03T14:23:57;2.28;;;1.17;;
54247;SDS011;40161;39.768;2.722;2022-08-03T14:26:23;2.20;;;1.27;;
54247;SDS011;40161;39.768;2.722;2022-08-03T14:28:48;2.47;;;1.30;;
54247;SDS011;40161;39.768;2.722;2022-08-03T14:31:14;3.10;;;1.10;;
54247;SDS011;40161;39.768;2.722;2022-08-03T14:33:40;1.98;;;1.13;;
54247;SDS011;40161;39.768;2.722;2022-08-03T14:36:05;3.05;;;1.40;;
54247;SDS011;40161;39.768;2.722;2022-08-03T14:38:31;3.55;;;1.38;;
54247;SDS011;40161;39.768;2.722;2022-08-03T14:40:57;5.32;;;1.67;;
54247;SDS011;40161;39.768;2.722;2022-08-03T14:43:22;3.03;;;1.17;;
54247;SDS011;40161;39.768;2.722;2022-08-03T14:45:48;2.47;;;1.30;;
54247;SDS011;40161;39.768;2.722;2022-08-03T14:48:16;2.47;;;1.20;;
54247;SDS011;40161;39.768;2.722;2022-08-03T14:50:43;4.28;;;1.30;;
54247;SDS011;40161;39.768;2.722;2022-08-03T14:53:08;3.88;;;1.27;;
54247;SDS011;40161;39.768;2.722;2022-08-03T14:55:34;2.85;;;1.10;;
54247;SDS011;40161;39.768;2.722;2022-08-03T14:58:00;1.80;;;1.10;;
54247;SDS011;40161;39.768;2.722;2022-08-03T15:00:30;3.63;;;1.10;;
54247;SDS011;40161;39.768;2.722;2022-08-03T15:02:56;3.40;;;1.30;;
54247;SDS011;40161;39.768;2.722;2022-08-03T15:05:22;3.55;;;1.30;;
54247;SDS011;40161;39.768;2.722;2022-08-03T15:07:47;3.00;;;1.20;;
54247;SDS011;40161;39.768;2.722;2022-08-03T15:10:13;3.47;;;1.27;;
54247;SDS011;40161;39.768;2.722;2022-08-03T15:12:38;2.35;;;1.10;;
54247;SDS011;40161;39.768;2.722;2022-08-03T15:15:04;2.72;;;1.20;;
54247;SDS011;40161;39.768;2.722;2022-08-03T15:17:30;1.85;;;1.10;;
54247;SDS011;40161;39.768;2.722;2022-08-03T15:23:17;2.97;;;1.30;;
54247;SDS011;40161;39.768;2.722;2022-08-03T15:25:43;2.92;;;1.27;;
54247;SDS011;40161;39.768;2.722;2022-08-03T15:31:31;3.28;;;1.38;;
54247;SDS011;40161;39.768;2.722;2022-08-03T15:33:57;2.85;;;1.23;;
54247;SDS011;40161;39.768;2.722;2022-08-03T15:36:23;4.63;;;1.30;;
54247;SDS011;40161;39.768;2.722;2022-08-03T15:38:48;2.90;;;1.20;;
54247;SDS011;40161;39.768;2.722;2022-08-03T15:41:14;1.92;;;1.10;;
54247;SDS011;40161;39.768;2.722;2022-08-03T15:43:39;3.90;;;1.20;;
54247;SDS011;40161;39.768;2.722;2022-08-03T15:46:05;2.67;;;1.20;;
54247;SDS011;40161;39.768;2.722;2022-08-03T15:48:31;2.13;;;1.10;;
54247;SDS011;40161;39.768;2.722;2022-08-03T15:50:57;3.05;;;1.17;;
54247;SDS011;40161;39.768;2.722;2022-08-03T15:53:23;2.97;;;1.30;;
54247;SDS011;40161;39.768;2.722;2022-08-03T15:55:49;2.75;;;1.40;;
54247;SDS011;40161;39.768;2.722;2022-08-03T15:58:14;3.42;;;1.25;;
54247;SDS011;40161;39.768;2.722;2022-08-03T16:00:40;2.08;;;1.30;;
54247;SDS011;40161;39.768;2.722;2022-08-03T16:03:06;3.55;;;1.35;;
54247;SDS011;40161;39.768;2.722;2022-08-03T16:05:32;3.30;;;1.20;;
54247;SDS011;40161;39.768;2.722;2022-08-03T16:07:57;4.75;;;1.50;;
54247;SDS011;40161;39.768;2.722;2022-08-03T16:10:23;2.40;;;1.20;;
54247;SDS011;40161;39.768;2.722;2022-08-03T16:12:52;3.78;;;1.50;;
54247;SDS011;40161;39.768;2.722;2022-08-03T16:15:18;2.75;;;1.30;;
54247;SDS011;40161;39.768;2.722;2022-08-03T16:17:44;3.10;;;1.30;;
54247;SDS011;40161;39.768;2.722;2022-08-03T16:20:10;3.33;;;1.40;;
54247;SDS011;40161;39.768;2.722;2022-08-03T16:22:43;4.45;;;1.45;;
54247;SDS011;40161;39.768;2.722;2022-08-03T16:25:10;3.92;;;1.35;;
54247;SDS011;40161;39.768;2.722;2022-08-03T16:27:37;3.42;;;1.27;;
54247;SDS011;40161;39.768;2.722;2022-08-03T16:30:06;3.15;;;1.50;;
54247;SDS011;40161;39.768;2.722;2022-08-03T16:32:32;3.63;;;1.50;;
54247;SDS011;40161;39.768;2.722;2022-08-03T16:34:58;2.85;;;1.13;;
54247;SDS011;40161;39.768;2.722;2022-08-03T16:37:25;3.25;;;1.23;;
54247;SDS011;40161;39.768;2.722;2022-08-03T16:39:51;3.80;;;1.33;;
54247;SDS011;40161;39.768;2.722;2022-08-03T16:42:17;2.65;;;1.40;;
54247;SDS011;40161;39.768;2.722;2022-08-03T16:44:43;3.10;;;1.30;;
54247;SDS011;40161;39.768;2.722;2022-08-03T16:52:55;2.75;;;1.13;;
54247;SDS011;40161;39.768;2.722;2022-08-03T16:55:21;2.55;;;1.42;;
54247;SDS011;40161;39.768;2.722;2022-08-03T16:57:46;1.55;;;1.13;;
54247;SDS011;40161;39.768;2.722;2022-08-03T17:00:12;2.33;;;1.30;;
54247;SDS011;40161;39.768;2.722;2022-08-03T17:02:39;3.67;;;1.30;;
54247;SDS011;40161;39.768;2.722;2022-08-03T17:05:07;3.65;;;1.30;;
54247;SDS011;40161;39.768;2.722;2022-08-03T17:07:33;2.10;;;1.23;;
54247;SDS011;40161;39.768;2.722;2022-08-03T17:09:59;4.95;;;1.77;;
54247;SDS011;40161;39.768;2.722;2022-08-03T17:12:25;2.80;;;1.50;;
54247;SDS011;40161;39.768;2.722;2022-08-03T17:14:51;3.33;;;1.60;;
54247;SDS011;40161;39.768;2.722;2022-08-03T17:17:21;2.60;;;1.40;;
54247;SDS011;40161;39.768;2.722;2022-08-03T17:19:56;2.67;;;1.38;;
54247;SDS011;40161;39.768;2.722;2022-08-03T17:33:57;4.10;;;1.48;;
54247;SDS011;40161;39.768;2.722;2022-08-03T17:39:46;5.75;;;1.65;;
54247;SDS011;40161;39.768;2.722;2022-08-03T17:42:11;2.75;;;1.50;;
54247;SDS011;40161;39.768;2.722;2022-08-03T17:44:37;2.50;;;1.42;;
54247;SDS011;40161;39.768;2.722;2022-08-03T17:47:03;5.68;;;1.70;;
54247;SDS011;40161;39.768;2.722;2022-08-03T17:49:30;4.45;;;1.58;;
54247;SDS011;40161;39.768;2.722;2022-08-03T17:52:33;4.13;;;1.63;;
54247;SDS011;40161;39.768;2.722;2022-08-03T17:55:13;2.90;;;1.33;;
54247;SDS011;40161;39.768;2.722;2022-08-03T18:00:16;3.95;;;1.70;;
54247;SDS011;40161;39.768;2.722;2022-08-03T18:06:06;4.93;;;1.50;;
54247;SDS011;40161;39.768;2.722;2022-08-03T18:08:34;3.45;;;1.38;;
54247;SDS011;40161;39.768;2.722;2022-08-03T18:11:09;3.05;;;1.45;;
54247;SDS011;40161;39.768;2.722;2022-08-03T18:16:10;4.50;;;1.30;;
54247;SDS011;40161;39.768;2.722;2022-08-03T18:18:40;2.25;;;1.30;;
54247;SDS011;40161;39.768;2.722;2022-08-03T18:21:08;3.33;;;1.35;;
54247;SDS011;40161;39.768;2.722;2022-08-03T18:23:38;3.90;;;1.40;;
54247;SDS011;40161;39.768;2.722;2022-08-03T18:26:05;3.45;;;1.80;;
54247;SDS011;40161;39.768;2.722;2022-08-03T18:28:34;3.38;;;1.75;;
54247;SDS011;40161;39.768;2.722;2022-08-03T18:31:02;4.65;;;1.70;;
54247;SDS011;40161;39.768;2.722;2022-08-03T18:33:29;4.78;;;1.70;;
54247;SDS011;40161;39.768;2.722;2022-08-03T18:36:02;3.25;;;1.30;;
54247;SDS011;40161;39.768;2.722;2022-08-03T18:44:15;3.10;;;1.48;;
54247;SDS011;40161;39.768;2.722;2022-08-03T18:46:44;3.88;;;1.50;;
54247;SDS011;40161;39.768;2.722;2022-08-03T18:51:43;3.00;;;1.35;;
54247;SDS011;40161;39.768;2.722;2022-08-03T18:54:15;4.75;;;1.48;;
54247;SDS011;40161;39.768;2.722;2022-08-03T19:05:11;3.05;;;1.50;;
54247;SDS011;40161;39.768;2.722;2022-08-03T19:07:39;3.40;;;1.27;;
54247;SDS011;40161;39.768;2.722;2022-08-03T19:10:12;4.15;;;1.50;;
54247;SDS011;40161;39.768;2.722;2022-08-03T19:12:49;3.10;;;1.30;;
54247;SDS011;40161;39.768;2.722;2022-08-03T19:15:19;3.05;;;1.30;;
54247;SDS011;40161;39.768;2.722;2022-08-03T19:17:46;4.53;;;1.80;;
54247;SDS011;40161;39.768;2.722;2022-08-03T19:20:20;3.33;;;1.80;;
54247;SDS011;40161;39.768;2.722;2022-08-03T19:27:48;3.88;;;1.60;;
54247;SDS011;40161;39.768;2.722;2022-08-03T19:30:15;3.17;;;1.55;;
54247;SDS011;40161;39.768;2.722;2022-08-03T19:33:21;2.10;;;1.40;;
54247;SDS011;40161;39.768;2.722;2022-08-03T19:35:47;3.70;;;1.73;;
54247;SDS011;40161;39.768;2.722;2022-08-03T19:38:16;3.40;;;1.70;;
54247;SDS011;40161;39.768;2.722;2022-08-03T19:40:43;5.60;;;2.03;;
54247;SDS011;40161;39.768;2.722;2022-08-03T19:43:16;4.68;;;1.90;;
54247;SDS011;40161;39.768;2.722;2022-08-03T19:45:50;3.53;;;1.70;;
54247;SDS011;40161;39.768;2.722;2022-08-03T19:48:19;3.38;;;2.10;;
54247;SDS011;40161;39.768;2.722;2022-08-03T19:53:16;4.50;;;1.98;;
54247;SDS011;40161;39.768;2.722;2022-08-03T19:55:44;3.55;;;1.80;;
54247;SDS011;40161;39.768;2.722;2022-08-03T19:58:10;3.55;;;1.63;;
54247;SDS011;40161;39.768;2.722;2022-08-03T20:00:38;3.75;;;1.50;;
54247;SDS011;40161;39.768;2.722;2022-08-03T20:08:05;4.33;;;1.90;;
54247;SDS011;40161;39.768;2.722;2022-08-03T20:10:32;6.65;;;2.05;;
54247;SDS011;40161;39.768;2.722;2022-08-03T20:17:59;5.32;;;1.77;;
54247;SDS011;40161;39.768;2.722;2022-08-03T20:20:26;4.13;;;2.10;;
54247;SDS011;40161;39.768;2.722;2022-08-03T20:23:06;5.47;;;2.03;;
54247;SDS011;40161;39.768;2.722;2022-08-03T20:25:57;4.13;;;1.80;;
54247;SDS011;40161;39.768;2.722;2022-08-03T20:28:31;3.00;;;1.70;;
54247;SDS011;40161;39.768;2.722;2022-08-03T20:31:06;4.00;;;1.90;;
54247;SDS011;40161;39.768;2.722;2022-08-03T20:33:32;3.58;;;1.65;;
54247;SDS011;40161;39.768;2.722;2022-08-03T20:35:57;4.47;;;2.10;;
54247;SDS011;40161;39.768;2.722;2022-08-03T20:38:23;4.47;;;1.88;;
54247;SDS011;40161;39.768;2.722;2022-08-03T20:40:48;3.50;;;1.90;;
54247;SDS011;40161;39.768;2.722;2022-08-03T20:43:14;3.95;;;1.70;;
54247;SDS011;40161;39.768;2.722;2022-08-03T20:45:40;3.55;;;1.50;;
54247;SDS011;40161;39.768;2.722;2022-08-03T20:48:08;2.95;;;1.60;;
54247;SDS011;40161;39.768;2.722;2022-08-03T20:50:37;4.07;;;2.08;;
54247;SDS011;40161;39.768;2.722;2022-08-03T20:53:07;4.40;;;2.03;;
54247;SDS011;40161;39.768;2.722;2022-08-03T20:55:33;4.00;;;1.73;;
54247;SDS011;40161;39.768;2.722;2022-08-03T20:58:00;2.53;;;1.70;;
54247;SDS011;40161;39.768;2.722;2022-08-03T21:00:30;6.43;;;2.30;;
54247;SDS011;40161;39.768;2.722;2022-08-03T21:02:56;3.72;;;1.95;;
54247;SDS011;40161;39.768;2.722;2022-08-03T21:05:21;5.70;;;2.00;;
54247;SDS011;40161;39.768;2.722;2022-08-03T21:08:00;3.15;;;1.92;;
54247;SDS011;40161;39.768;2.722;2022-08-03T21:13:00;4.18;;;2.17;;